Time;durP1;ratioP1;P1;durP2;ratioP2;P2;SDS_P1;SDS_P2;PMS_P1;PMS_P2;Temp;Humidity;BMP_temperature;BMP_pressure;BME280_temperature;BME280_humidity;BME280_pressure;Samples;Min_cycle;Max_cycle;Signal;HPM_P1;HPM_P2
2023/08/13 00:00:48;;;;;;;;;;;;;;;-145.06;100.00;60892.56;4714887;29;19923;-89
2023/08/13 00:03:27;;;;;;;;;;;;;;;-145.06;100.00;60892.56;4728088;29;19927;-90
2023/08/13 00:06:06;;;;;;;;;;;;;;;-145.06;100.00;60892.56;4726729;29;19924;-89
2023/08/13 00:08:45;;;;;;;;;;;;;;;-145.06;100.00;60892.56;4739338;29;19915;-90
2023/08/13 00:11:24;;;;;;;;;;;;;;;-145.06;100.00;60892.56;4727783;29;19919;-91
2023/08/13 00:14:03;;;;;;;;;;;;;;;-145.06;100.00;60892.56;4727055;29;20425;-90
2023/08/13 00:16:44;;;;;;;;;;;;;;;-145.06;100.00;60892.56;4718370;29;19915;-90
2023/08/13 00:19:22;;;;;;;;;;;;;;;-145.06;100.00;60892.56;4729751;29;19927;-90
2023/08/13 00:22:01;;;;;;;;;;;;;;;-145.06;100.00;60892.56;4743362;29;19923;-90
2023/08/13 00:24:40;;;;;;;;;;;;;;;-145.06;100.00;60892.56;4744737;29;19923;-89
2023/08/13 00:27:19;;;;;;;;;;;;;;;-145.06;100.00;60892.56;4717008;29;19920;-89
2023/08/13 00:29:58;;;;;;;;;;;;;;;-145.06;100.00;60892.56;4736823;29;19920;-90
2023/08/13 00:32:37;;;;;;;;;;;;;;;-145.06;100.00;60892.56;4717764;29;19920;-90
2023/08/13 00:35:16;;;;;;;;;;;;;;;-145.06;100.00;60892.56;4731728;29;20018;-90
2023/08/13 00:37:55;;;;;;;;;;;;;;;-145.06;100.00;60892.56;4713760;29;19919;-90
2023/08/13 00:40:34;;;;;;;;;;;;;;;-145.06;100.00;60892.56;4726777;29;19920;-89
2023/08/13 00:43:13;;;;;;;;;;;;;;;-145.06;100.00;60892.56;4719544;29;19983;-89
2023/08/13 00:45:52;;;;;;;;;;;;;;;-145.06;100.00;60892.56;4713447;29;19923;-90
2023/08/13 00:48:31;;;;;;;;;;;;;;;-145.06;100.00;60892.56;4716724;29;19927;-90
2023/08/13 00:51:12;;;;;;;;;;;;;;;-145.06;100.00;60892.56;4730310;29;19923;-90
2023/08/13 00:53:51;;;;;;;;;;;;;;;-145.06;100.00;60892.56;4741466;29;19927;-89
2023/08/13 00:56:30;;;;;;;;;;;;;;;-145.06;100.00;60892.56;4717519;29;19919;-90
2023/08/13 00:59:09;;;;;;;;;;;;;;;-145.06;100.00;60892.56;4721259;29;19926;-90
2023/08/13 01:01:48;;;;;;;;;;;;;;;19.69;100.00;60892.56;4721604;29;19923;-90
2023/08/13 01:04:27;;;;;;;;;;;;;;;19.66;100.00;60892.56;4728734;29;20041;-89
2023/08/13 01:07:06;;;;;;;;;;;;;;;19.64;100.00;60892.56;4732251;29;20088;-90
2023/08/13 01:09:54;;;;;;;;;;;;;;;19.61;100.00;60892.56;4738331;29;19923;-90
2023/08/13 01:12:41;;;;;;;;;;;;;;;-145.06;100.00;60892.56;4731123;29;19920;-90
2023/08/13 01:15:23;;;;;;;;;;;;;;;-145.06;100.00;60892.56;4733074;29;20691;-90
2023/08/13 01:18:03;;;;;;;;;;;;;;;19.55;100.00;60892.56;4709916;29;19959;-90
2023/08/13 01:20:42;;;;;;;;;;;;;;;19.50;100.00;60892.56;4720485;29;19924;-89
2023/08/13 01:23:21;;;;;;;;;;;;;;;19.45;100.00;60892.56;4710316;29;19927;-90
2023/08/13 01:26:06;;;;;;;;;;;;;;;-145.06;100.00;60892.56;4742365;29;19928;-90
2023/08/13 01:29:00;;;;;;;;;;;;;;;-145.06;100.00;60892.56;4722194;29;20022;-90
2023/08/13 01:31:40;;;;;;;;;;;;;;;-145.06;100.00;60892.56;4735070;29;20709;-90
2023/08/13 01:34:19;;;;;;;;;;;;;;;-145.06;100.00;60892.56;4719244;29;19962;-90
2023/08/13 01:36:59;;;;;;;;;;;;;;;-145.06;100.00;60892.56;4740775;29;19920;-89
2023/08/13 01:39:37;;;;;;;;;;;;;;;-145.06;100.00;60892.56;4735839;29;19919;-89
2023/08/13 01:42:17;;;;;;;;;;;;;;;-145.06;100.00;60892.56;4710245;29;19923;-89
2023/08/13 01:44:56;;;;;;;;;;;;;;;-145.06;100.00;60892.56;4715623;29;19987;-92
2023/08/13 01:47:35;;;;;;;;;;;;;;;-145.06;100.00;60892.56;4719670;29;19919;-89
2023/08/13 01:50:14;;;;;;;;;;;;;;;-145.06;100.00;60892.56;4732128;29;20011;-89
2023/08/13 01:52:53;;;;;;;;;;;;;;;-145.06;100.00;60892.56;4737636;29;19919;-89
2023/08/13 01:55:32;;;;;;;;;;;;;;;-145.06;100.00;60892.56;4724681;29;19924;-89
2023/08/13 01:58:11;;;;;;;;;;;;;;;-145.06;100.00;60892.56;4713775;29;19924;-88
2023/08/13 02:00:49;;;;;;;;;;;;;;;-145.06;100.00;60892.56;4710490;29;19919;-89
2023/08/13 02:03:28;;;;;;;;;;;;;;;-145.06;100.00;60892.56;4726746;29;19924;-90
2023/08/13 02:06:07;;;;;;;;;;;;;;;-145.06;100.00;60892.56;4735563;29;19962;-90
2023/08/13 02:08:47;;;;;;;;;;;;;;;-145.06;100.00;60892.56;4725320;29;19951;-90
2023/08/13 02:11:26;;;;;;;;;;;;;;;-145.06;100.00;60892.56;4740736;29;19931;-89
2023/08/13 02:14:05;;;;;;;;;;;;;;;-145.06;100.00;60892.56;4732127;29;19923;-89
2023/08/13 02:16:43;;;;;;;;;;;;;;;-145.06;100.00;60892.56;4717254;29;19923;-89
2023/08/13 02:19:22;;;;;;;;;;;;;;;-145.06;100.00;60892.56;4736518;29;19924;-89
2023/08/13 02:22:02;;;;;;;;;;;;;;;-145.06;100.00;60892.56;4714767;29;19923;-90
2023/08/13 02:24:41;;;;;;;;;;;;;;;-145.06;100.00;60892.56;4715966;29;19923;-90
2023/08/13 02:27:20;;;;;;;;;;;;;;;-145.06;100.00;60892.56;4716915;29;19923;-89
2023/08/13 02:29:59;;;;;;;;;;;;;;;-145.06;100.00;60892.56;4724205;29;19942;-90
2023/08/13 02:32:38;;;;;;;;;;;;;;;-145.06;100.00;60892.56;4713137;29;19920;-88
2023/08/13 02:35:17;;;;;;;;;;;;;;;-145.06;100.00;60892.56;4728350;29;20263;-90
2023/08/13 02:37:56;;;;;;;;;;;;;;;-145.06;100.00;60892.56;4723184;29;20010;-90
2023/08/13 02:40:35;;;;;;;;;;;;;;;-145.06;100.00;60892.56;4725693;29;19920;-89
2023/08/13 02:43:14;;;;;;;;;;;;;;;-145.06;100.00;60892.56;4722972;29;19923;-90
2023/08/13 02:45:53;;;;;;;;;;;;;;;-145.06;100.00;60892.56;4716923;29;20294;-89
2023/08/13 02:48:32;;;;;;;;;;;;;;;18.47;100.00;60892.56;4708781;29;19970;-89
2023/08/13 02:51:11;;;;;;;;;;;;;;;-145.06;100.00;60892.56;4727145;29;19927;-89
2023/08/13 02:53:50;;;;;;;;;;;;;;;-145.06;100.00;60892.56;4721379;29;19919;-89
2023/08/13 02:56:29;;;;;;;;;;;;;;;-145.06;100.00;60892.56;4715555;29;19928;-89
2023/08/13 02:59:08;;;;;;;;;;;;;;;18.37;100.00;60892.56;4719172;29;19930;-89
2023/08/13 03:01:47;;;;;;;;;;;;;;;18.35;100.00;60892.56;4726078;29;20549;-89
2023/08/13 03:04:27;;;;;;;;;;;;;;;-145.06;100.00;60892.56;4712764;29;20175;-90
2023/08/13 03:07:05;;;;;;;;;;;;;;;18.27;100.00;60892.56;4714561;29;19923;-90
2023/08/13 03:09:44;;;;;;;;;;;;;;;18.25;100.00;60892.56;4733631;29;20777;-89
2023/08/13 03:12:23;;;;;;;;;;;;;;;18.23;100.00;60892.56;4718625;29;19920;-90
2023/08/13 03:15:02;;;;;;;;;;;;;;;18.20;100.00;60892.56;4730724;29;19919;-90
2023/08/13 03:17:41;;;;;;;;;;;;;;;-145.06;100.00;60892.56;4713405;29;19927;-88
2023/08/13 03:20:20;;;;;;;;;;;;;;;-145.06;100.00;60892.56;4733046;29;20001;-90
2023/08/13 03:22:59;;;;;;;;;;;;;;;-145.06;100.00;60892.56;4713693;29;19928;-89
2023/08/13 03:25:38;;;;;;;;;;;;;;;-145.06;100.00;60892.56;4716476;29;19919;-90
2023/08/13 03:28:17;;;;;;;;;;;;;;;-145.06;100.00;60892.56;4717029;29;19919;-90
2023/08/13 03:31:00;;;;;;;;;;;;;;;-145.06;100.00;60892.56;4710331;29;19928;-90
2023/08/13 03:33:38;;;;;;;;;;;;;;;-145.06;100.00;60892.56;4694983;29;19923;-89
2023/08/13 03:36:17;;;;;;;;;;;;;;;-145.06;100.00;60892.56;4710168;29;19920;-89
2023/08/13 03:38:56;;;;;;;;;;;;;;;-145.06;100.00;60892.56;4713337;29;19920;-89
2023/08/13 03:41:35;;;;;;;;;;;;;;;-145.06;100.00;60892.56;4722017;29;19924;-89
2023/08/13 03:44:14;;;;;;;;;;;;;;;-145.06;100.00;60892.56;4711327;29;19923;-88
2023/08/13 03:46:53;;;;;;;;;;;;;;;-145.06;100.00;60892.56;4705434;29;19919;-89
2023/08/13 03:49:33;;;;;;;;;;;;;;;-145.06;100.00;60892.56;4742192;29;19950;-89
2023/08/13 03:52:12;;;;;;;;;;;;;;;-145.06;100.00;60892.56;4730541;29;19928;-89
2023/08/13 03:54:51;;;;;;;;;;;;;;;-145.06;100.00;60892.56;4709628;29;19924;-90
2023/08/13 03:57:30;;;;;;;;;;;;;;;-145.06;100.00;60892.56;4711073;29;19919;-89
2023/08/13 04:00:09;;;;;;;;;;;;;;;-145.06;100.00;60892.56;4722375;29;20031;-88
2023/08/13 04:02:49;;;;;;;;;;;;;;;-145.06;100.00;60892.56;4738649;29;20033;-89
2023/08/13 04:05:28;;;;;;;;;;;;;;;-145.06;100.00;60892.56;4723820;29;19923;-89
2023/08/13 04:08:07;;;;;;;;;;;;;;;-145.06;100.00;60892.56;4713988;29;20006;-90
2023/08/13 04:10:46;;;;;;;;;;;;;;;-145.06;100.00;60892.56;4712748;29;19915;-89
2023/08/13 04:13:24;;;;;;;;;;;;;;;-145.06;100.00;60892.56;4728843;29;19998;-89
2023/08/13 04:16:03;;;;;;;;;;;;;;;-145.06;100.00;60892.56;4703105;29;19920;-90
2023/08/13 04:18:43;;;;;;;;;;;;;;;-145.06;100.00;60892.56;4712197;29;20034;-90
2023/08/13 04:21:23;;;;;;;;;;;;;;;-145.06;100.00;60892.56;4708925;29;19928;-89
2023/08/13 04:24:02;;;;;;;;;;;;;;;-145.06;100.00;60892.56;4714423;29;19924;-90
2023/08/13 04:26:41;;;;;;;;;;;;;;;-145.06;100.00;60892.56;4737380;29;19919;-90
2023/08/13 04:29:20;;;;;;;;;;;;;;;-145.06;100.00;60892.56;4717072;29;19915;-90
2023/08/13 04:31:59;;;;;;;;;;;;;;;-145.06;100.00;60892.56;4721646;29;19923;-89
2023/08/13 04:34:38;;;;;;;;;;;;;;;-145.06;100.00;60892.56;4712992;29;19949;-88
2023/08/13 04:37:17;;;;;;;;;;;;;;;-145.06;100.00;60892.56;4711892;29;20335;-90
2023/08/13 04:39:57;;;;;;;;;;;;;;;-145.06;100.00;60892.56;4740662;29;19919;-89
2023/08/13 04:42:36;;;;;;;;;;;;;;;-145.06;100.00;60892.56;4708211;29;19927;-90
2023/08/13 04:45:15;;;;;;;;;;;;;;;-145.06;100.00;60892.56;4709691;29;19923;-89
2023/08/13 04:47:54;;;;;;;;;;;;;;;-145.06;100.00;60892.56;4708778;29;19923;-89
2023/08/13 04:50:33;;;;;;;;;;;;;;;-145.06;100.00;60892.56;4708124;29;19931;-88
2023/08/13 04:53:12;;;;;;;;;;;;;;;-145.06;100.00;60892.56;4732791;29;19920;-90
2023/08/13 04:55:51;;;;;;;;;;;;;;;-145.06;100.00;60892.56;4710535;29;19928;-90
2023/08/13 04:58:30;;;;;;;;;;;;;;;-145.06;100.00;60892.56;4713396;29;19924;-90
2023/08/13 05:01:09;;;;;;;;;;;;;;;-145.06;100.00;60892.56;4715291;29;19958;-90
2023/08/13 05:03:48;;;;;;;;;;;;;;;-145.06;100.00;60892.56;4726038;29;19924;-90
2023/08/13 05:06:27;;;;;;;;;;;;;;;-145.06;100.00;60892.56;4718468;29;19919;-92
2023/08/13 05:09:06;;;;;;;;;;;;;;;-145.06;100.00;60892.56;4735463;29;20528;-91
2023/08/13 05:11:45;;;;;;;;;;;;;;;-145.06;100.00;60892.56;4729658;29;20259;-91
2023/08/13 05:14:24;;;;;;;;;;;;;;;-145.06;100.00;60892.56;4718006;29;19958;-91
2023/08/13 05:17:15;;;;;;;;;;;;;;;-145.06;100.00;60892.56;4718427;29;19916;-90
2023/08/13 05:19:54;;;;;;;;;;;;;;;-145.06;100.00;60892.56;4718245;29;19919;-91
2023/08/13 05:22:33;;;;;;;;;;;;;;;-145.06;100.00;60892.56;4717541;29;19959;-91
2023/08/13 05:25:12;;;;;;;;;;;;;;;-145.06;100.00;60892.56;4718227;29;19919;-91
2023/08/13 05:27:52;;;;;;;;;;;;;;;-145.06;100.00;60892.56;4725620;29;19924;-90
2023/08/13 05:30:30;;;;;;;;;;;;;;;-145.06;100.00;60892.56;4731377;29;19915;-91
2023/08/13 05:33:09;;;;;;;;;;;;;;;-145.06;100.00;60892.56;4724433;29;19919;-91
2023/08/13 05:35:48;;;;;;;;;;;;;;;-145.06;100.00;60892.56;4727458;29;19915;-91
2023/08/13 05:38:28;;;;;;;;;;;;;;;-145.06;100.00;60892.56;4726749;29;19919;-90
2023/08/13 05:41:07;;;;;;;;;;;;;;;-145.06;100.00;60892.56;4726483;29;19919;-90
2023/08/13 05:43:46;;;;;;;;;;;;;;;-145.06;100.00;60892.56;4730178;29;19919;-89
2023/08/13 05:46:25;;;;;;;;;;;;;;;-145.06;100.00;60892.56;4726562;29;19951;-90
2023/08/13 05:49:04;;;;;;;;;;;;;;;-145.06;100.00;60892.56;4731773;29;19915;-90
2023/08/13 05:51:43;;;;;;;;;;;;;;;-145.06;100.00;60892.56;4727340;29;19920;-91
2023/08/13 05:54:22;;;;;;;;;;;;;;;-145.06;100.00;60892.56;4718919;29;19916;-91
2023/08/13 05:57:01;;;;;;;;;;;;;;;-145.06;100.00;60892.56;4724465;29;20018;-90
2023/08/13 05:59:42;;;;;;;;;;;;;;;-145.06;100.00;60892.56;4750815;29;20002;-91
2023/08/13 06:02:23;;;;;;;;;;;;;;;-145.06;100.00;60892.56;4724911;29;22541;-90
2023/08/13 06:05:02;;;;;;;;;;;;;;;-145.06;100.00;60892.56;4724038;29;19919;-92
2023/08/13 06:07:40;;;;;;;;;;;;;;;-145.06;100.00;60892.56;4717692;29;19915;-91
2023/08/13 06:10:19;;;;;;;;;;;;;;;-145.06;100.00;60892.56;4721048;29;19923;-91
2023/08/13 06:12:59;;;;;;;;;;;;;;;-145.06;100.00;60892.56;4712517;29;19992;-92
2023/08/13 06:15:38;;;;;;;;;;;;;;;-145.06;100.00;60892.56;4730620;29;20010;-90
2023/08/13 06:18:17;;;;;;;;;;;;;;;-145.06;100.00;60892.56;4717402;29;19916;-91
2023/08/13 06:20:56;;;;;;;;;;;;;;;-145.06;100.00;60892.56;4717261;29;19967;-92
2023/08/13 06:23:35;;;;;;;;;;;;;;;-145.06;100.00;60892.56;4726231;29;20948;-92
2023/08/13 06:26:14;;;;;;;;;;;;;;;-145.06;100.00;60892.56;4699362;29;19963;-91
2023/08/13 06:28:53;;;;;;;;;;;;;;;-145.06;100.00;60892.56;4721736;29;19915;-91
2023/08/13 06:31:34;;;;;;;;;;;;;;;-145.06;100.00;60892.56;4709350;29;19916;-91
2023/08/13 06:34:14;;;;;;;;;;;;;;;18.20;100.00;60892.56;4727923;29;20251;-91
2023/08/13 06:36:53;;;;;;;;;;;;;;;18.24;100.00;60892.56;4735433;29;19915;-92
2023/08/13 06:39:33;;;;;;;;;;;;;;;18.29;100.00;60892.56;4727877;29;20250;-91
2023/08/13 06:42:12;;;;;;;;;;;;;;;18.33;100.00;60892.56;4712509;29;20007;-91
2023/08/13 06:44:51;;;;;;;;;;;;;;;18.37;100.00;60892.56;4714256;29;19928;-91
2023/08/13 06:47:30;;;;;;;;;;;;;;;-145.06;100.00;60892.56;4735140;29;19919;-90
2023/08/13 06:50:09;;;;;;;;;;;;;;;-145.06;100.00;60892.56;4725891;29;19950;-92
2023/08/13 06:52:56;;;;;;;;;;;;;;;-145.06;100.00;60892.56;4716916;29;20518;-93
2023/08/13 06:55:35;;;;;;;;;;;;;;;-145.06;100.00;60892.56;4725946;29;19919;-93
2023/08/13 06:58:14;;;;;;;;;;;;;;;-145.06;100.00;60892.56;4717319;29;20002;-91
2023/08/13 07:00:53;;;;;;;;;;;;;;;-145.06;100.00;60892.56;4729020;29;19919;-92
2023/08/13 07:03:32;;;;;;;;;;;;;;;-145.06;100.00;60892.56;4731399;29;19924;-91
2023/08/13 07:06:11;;;;;;;;;;;;;;;-145.06;100.00;60892.56;4726320;29;19923;-91
2023/08/13 07:08:50;;;;;;;;;;;;;;;-145.06;100.00;60892.56;4730248;29;19916;-91
2023/08/13 07:11:32;;;;;;;;;;;;;;;-145.06;100.00;60892.56;4710453;29;19923;-90
2023/08/13 07:14:11;;;;;;;;;;;;;;;-145.06;100.00;60892.56;4728086;29;19927;-92
2023/08/13 07:16:50;;;;;;;;;;;;;;;-145.06;100.00;60892.56;4727554;29;19998;-91
2023/08/13 07:19:29;;;;;;;;;;;;;;;-145.06;100.00;60892.56;4719802;29;20350;-92
2023/08/13 07:22:08;;;;;;;;;;;;;;;-145.06;100.00;60892.56;4725843;29;19920;-92
2023/08/13 07:24:47;;;;;;;;;;;;;;;-145.06;100.00;60892.56;4709108;29;19923;-91
2023/08/13 07:27:26;;;;;;;;;;;;;;;-145.06;100.00;60892.56;4714302;29;19919;-91
2023/08/13 07:30:07;;;;;;;;;;;;;;;-145.06;100.00;60892.56;4722680;29;19915;-92
2023/08/13 07:32:47;;;;;;;;;;;;;;;-145.06;100.00;60892.56;4719282;29;19920;-92
2023/08/13 07:35:26;;;;;;;;;;;;;;;19.47;100.00;60892.56;4721806;29;19919;-91
2023/08/13 07:38:04;;;;;;;;;;;;;;;19.54;100.00;60892.56;4717634;29;20263;-91
2023/08/13 07:40:43;;;;;;;;;;;;;;;19.58;100.00;60892.56;4719272;29;19923;-91
2023/08/13 07:43:24;;;;;;;;;;;;;;;-145.06;100.00;60892.56;4725650;29;19924;-90
2023/08/13 07:46:03;;;;;;;;;;;;;;;-145.06;100.00;60892.56;4733374;29;19931;-92
2023/08/13 07:48:42;;;;;;;;;;;;;;;-145.06;100.00;60892.56;4728764;29;19919;-90
2023/08/13 07:51:21;;;;;;;;;;;;;;;-145.06;100.00;60892.56;4715594;29;20169;-90
2023/08/13 07:54:00;;;;;;;;;;;;;;;-145.06;100.00;60892.56;4714367;29;19923;-91
2023/08/13 07:56:39;;;;;;;;;;;;;;;-145.06;100.00;60892.56;4716401;29;19924;-89
2023/08/13 07:59:18;;;;;;;;;;;;;;;-145.06;100.00;60892.56;4735701;29;20375;-91
2023/08/13 08:01:57;;;;;;;;;;;;;;;-145.06;100.00;60892.56;4719093;29;20018;-90
2023/08/13 08:04:36;;;;;;;;;;;;;;;-145.06;100.00;60892.56;4729752;29;20362;-90
2023/08/13 08:07:15;;;;;;;;;;;;;;;-145.06;100.00;60892.56;4725812;29;19919;-90
2023/08/13 08:09:54;;;;;;;;;;;;;;;-145.06;100.00;60892.56;4717758;29;19974;-89
2023/08/13 08:12:33;;;;;;;;;;;;;;;-145.06;100.00;60892.56;4707181;29;19920;-90
2023/08/13 08:15:12;;;;;;;;;;;;;;;-145.06;100.00;60892.56;4715368;29;19920;-93
2023/08/13 08:17:51;;;;;;;;;;;;;;;-145.06;100.00;60892.56;4722331;29;19923;-92
2023/08/13 08:20:30;;;;;;;;;;;;;;;-145.06;100.00;60892.56;4715053;29;19920;-92
2023/08/13 08:23:09;;;;;;;;;;;;;;;-145.06;100.00;60892.56;4739294;29;19919;-93
2023/08/13 08:25:48;;;;;;;;;;;;;;;-145.06;100.00;60892.56;4724325;29;19915;-92
2023/08/13 08:54:49;;;;;;;;;;;;;;;-145.06;100.00;60892.56;4934332;23;19927;-93
2023/08/13 08:57:27;;;;;;;;;;;;;;;-145.06;100.00;60892.56;4741141;29;19915;-93
2023/08/13 09:00:07;;;;;;;;;;;;;;;-145.06;100.00;60892.56;4722538;29;19919;-93
2023/08/13 09:02:46;;;;;;;;;;;;;;;-145.06;100.00;60892.56;4753450;29;19920;-92
2023/08/13 09:05:25;;;;;;;;;;;;;;;-145.06;100.00;60892.56;4732494;29;19915;-92
2023/08/13 09:08:09;;;;;;;;;;;;;;;-145.06;100.00;60892.56;4753420;29;20014;-92
2023/08/13 09:10:48;;;;;;;;;;;;;;;-145.06;100.00;60892.56;4740091;29;19919;-93
2023/08/13 09:13:27;;;;;;;;;;;;;;;21.78;100.00;60892.56;4739859;29;19914;-92
2023/08/13 09:16:08;;;;;;;;;;;;;;;21.81;100.00;60892.56;4739815;29;19919;-92
2023/08/13 09:18:46;;;;;;;;;;;;;;;21.86;100.00;60892.56;4739810;29;19923;-93
2023/08/13 09:21:43;;;;;;;;;;;;;;;21.93;100.00;60892.56;4747446;29;19918;-93
2023/08/13 09:24:33;;;;;;;;;;;;;;;-145.06;100.00;60892.56;4741506;29;20291;-94
2023/08/13 09:27:12;;;;;;;;;;;;;;;-145.06;100.00;60892.56;4740473;29;19915;-90
2023/08/13 09:29:54;;;;;;;;;;;;;;;22.23;100.00;60892.56;4738150;29;19919;-92
2023/08/13 09:32:33;;;;;;;;;;;;;;;22.28;100.00;60892.56;4722559;29;20010;-92
2023/08/13 09:35:12;;;;;;;;;;;;;;;22.36;100.00;60892.56;4728754;29;19923;-91
2023/08/13 09:37:51;;;;;;;;;;;;;;;-145.06;100.00;60892.56;4728996;29;19922;-91
2023/08/13 09:40:31;;;;;;;;;;;;;;;-145.06;100.00;60892.56;4736932;29;19915;-91
2023/08/13 09:43:11;;;;;;;;;;;;;;;-145.06;100.00;60892.56;4745582;29;20429;-91
2023/08/13 09:45:50;;;;;;;;;;;;;;;-145.06;100.00;60892.56;4735834;29;19919;-92
2023/08/13 09:48:30;;;;;;;;;;;;;;;-145.06;100.00;60892.56;4735710;29;19919;-89
2023/08/13 09:51:11;;;;;;;;;;;;;;;-145.06;100.00;60892.56;4744372;29;19919;-91
2023/08/13 09:53:52;;;;;;;;;;;;;;;-145.06;100.00;60892.56;4719554;29;20418;-89
2023/08/13 09:56:32;;;;;;;;;;;;;;;-145.06;100.00;60892.56;4737939;29;19919;-92
2023/08/13 09:59:11;;;;;;;;;;;;;;;-145.06;100.00;60892.56;4725583;29;20263;-91
2023/08/13 10:01:51;;;;;;;;;;;;;;;-145.06;100.00;60892.56;4752630;29;19922;-91
2023/08/13 10:04:30;;;;;;;;;;;;;;;-145.06;100.00;60892.56;4738912;29;19920;-92
2023/08/13 10:07:09;;;;;;;;;;;;;;;-145.06;100.00;60892.56;4747107;29;19915;-91
2023/08/13 10:09:49;;;;;;;;;;;;;;;-145.06;100.00;60892.56;4747473;29;19919;-90
2023/08/13 10:12:29;;;;;;;;;;;;;;;-145.06;100.00;60892.56;4730959;29;19922;-92
2023/08/13 10:15:07;;;;;;;;;;;;;;;-145.06;100.00;60892.56;4731442;29;19919;-92
2023/08/13 10:17:47;;;;;;;;;;;;;;;-145.06;100.00;60892.56;4740712;29;19919;-91
2023/08/13 10:20:26;;;;;;;;;;;;;;;-145.06;100.00;60892.56;4735470;29;19923;-91
2023/08/13 10:23:08;;;;;;;;;;;;;;;-145.06;100.00;60892.56;4751515;29;19946;-91
2023/08/13 10:25:52;;;;;;;;;;;;;;;-145.06;100.00;60892.56;4734437;29;19919;-92
2023/08/13 10:28:31;;;;;;;;;;;;;;;-145.06;100.00;60892.56;4733458;29;19923;-91
2023/08/13 10:31:23;;;;;;;;;;;;;;;-145.06;100.00;60892.56;4741546;29;20014;-91
2023/08/13 10:34:02;;;;;;;;;;;;;;;-145.06;100.00;60892.56;4746912;29;19919;-92
2023/08/13 10:36:44;;;;;;;;;;;;;;;-145.06;100.00;60892.56;4738007;29;19919;-91
2023/08/13 10:39:37;;;;;;;;;;;;;;;-145.06;100.00;60892.56;4727424;29;19919;-93
2023/08/13 10:42:32;;;;;;;;;;;;;;;-145.06;100.00;60892.56;4731639;29;19963;-91
2023/08/13 10:45:13;;;;;;;;;;;;;;;-145.06;100.00;60892.56;4736555;29;19923;-92
2023/08/13 10:47:57;;;;;;;;;;;;;;;-145.06;100.00;60892.56;4732710;29;19919;-91
2023/08/13 10:50:40;;;;;;;;;;;;;;;-145.06;100.00;60892.56;4741353;29;19919;-91
2023/08/13 10:53:20;;;;;;;;;;;;;;;-145.06;100.00;60892.56;4738903;29;19923;-92
2023/08/13 10:56:02;;;;;;;;;;;;;;;-145.06;100.00;60892.56;4765893;29;20005;-91
2023/08/13 10:58:41;;;;;;;;;;;;;;;-145.06;100.00;60892.56;4747911;29;19918;-92
2023/08/13 11:01:20;;;;;;;;;;;;;;;-145.06;100.00;60892.56;4733008;29;19954;-94
2023/08/13 11:04:01;;;;;;;;;;;;;;;-145.06;100.00;60892.56;4738806;29;19923;-94
2023/08/13 11:06:40;;;;;;;;;;;;;;;-145.06;100.00;60892.56;4743816;29;19978;-91
2023/08/13 11:09:22;;;;;;;;;;;;;;;-145.06;100.00;60892.56;4737413;29;19994;-91
2023/08/13 11:12:02;;;;;;;;;;;;;;;-145.06;100.00;60892.56;4756118;29;19914;-94
2023/08/13 11:14:41;;;;;;;;;;;;;;;-145.06;100.00;60892.56;4757033;29;19914;-93
2023/08/13 11:17:20;;;;;;;;;;;;;;;-145.06;100.00;60892.56;4740600;29;19919;-93
2023/08/13 11:19:59;;;;;;;;;;;;;;;-145.06;100.00;60892.56;4740029;29;19950;-94
2023/08/13 11:22:39;;;;;;;;;;;;;;;-145.06;100.00;60892.56;4742250;29;20115;-92
2023/08/13 11:25:18;;;;;;;;;;;;;;;-145.06;100.00;60892.56;4747910;29;19914;-92
2023/08/13 11:27:57;;;;;;;;;;;;;;;-145.06;100.00;60892.56;4738609;29;20347;-91
2023/08/13 11:30:45;;;;;;;;;;;;;;;-145.06;100.00;60892.56;4755544;29;20375;-93
2023/08/13 11:33:24;;;;;;;;;;;;;;;-145.06;100.00;60892.56;4737129;29;19919;-94
2023/08/13 11:36:04;;;;;;;;;;;;;;;-145.06;100.00;60892.56;4737673;29;19919;-93
2023/08/13 11:38:43;;;;;;;;;;;;;;;-145.06;100.00;60892.56;4745093;29;20224;-93
2023/08/13 11:41:24;;;;;;;;;;;;;;;-145.06;100.00;60892.56;4735352;29;19916;-94
2023/08/13 11:44:06;;;;;;;;;;;;;;;-145.06;100.00;60892.56;4763122;29;19927;-93
2023/08/13 11:47:00;;;;;;;;;;;;;;;-145.06;100.00;60892.56;4738998;29;19927;-93
2023/08/13 11:49:40;;;;;;;;;;;;;;;-145.06;100.00;60892.56;4740824;29;19915;-93
2023/08/13 11:52:19;;;;;;;;;;;;;;;-145.06;100.00;60892.56;4738130;29;19915;-93
2023/08/13 11:54:59;;;;;;;;;;;;;;;-145.06;100.00;60892.56;4749993;29;19923;-93
2023/08/13 11:57:38;;;;;;;;;;;;;;;-145.06;100.00;60892.56;4745978;29;20043;-93
2023/08/13 12:00:17;;;;;;;;;;;;;;;-145.06;100.00;60892.56;4737895;29;19978;-94
2023/08/13 12:02:57;;;;;;;;;;;;;;;-145.06;100.00;60892.56;4760034;29;20560;-93
2023/08/13 12:05:39;;;;;;;;;;;;;;;-145.06;100.00;60892.56;4737517;29;19919;-94
2023/08/13 12:08:18;;;;;;;;;;;;;;;-145.06;100.00;60892.56;4741979;29;19920;-93
2023/08/13 12:10:57;;;;;;;;;;;;;;;-145.06;100.00;60892.56;4720278;29;19915;-93
2023/08/13 12:13:41;;;;;;;;;;;;;;;-145.06;100.00;60892.56;4728843;29;20294;-94
2023/08/13 12:16:20;;;;;;;;;;;;;;;-145.06;100.00;60892.56;4770113;29;19915;-93
2023/08/13 12:19:00;;;;;;;;;;;;;;;-145.06;100.00;60892.56;4749497;29;19959;-93
2023/08/13 12:21:39;;;;;;;;;;;;;;;-145.06;100.00;60892.56;4738176;29;19915;-93
2023/08/13 12:24:18;;;;;;;;;;;;;;;-145.06;100.00;60892.56;4738331;29;19919;-93
2023/08/13 12:26:57;;;;;;;;;;;;;;;-145.06;100.00;60892.56;4736905;29;19971;-94
2023/08/13 12:29:36;;;;;;;;;;;;;;;-145.06;100.00;60892.56;4758751;29;20330;-94
2023/08/13 12:32:16;;;;;;;;;;;;;;;-145.06;100.00;60892.56;4751571;29;19915;-93
2023/08/13 12:34:54;;;;;;;;;;;;;;;-145.06;100.00;60892.56;4738284;29;20002;-93
2023/08/13 12:37:33;;;;;;;;;;;;;;;-145.06;100.00;60892.56;4738940;29;19919;-94
2023/08/13 12:40:13;;;;;;;;;;;;;;;-145.06;100.00;60892.56;4756433;29;20001;-93
2023/08/13 12:42:53;;;;;;;;;;;;;;;-145.06;100.00;60892.56;4734627;29;19919;-93
2023/08/13 12:45:32;;;;;;;;;;;;;;;-145.06;100.00;60892.56;4736109;29;19923;-92
2023/08/13 12:48:11;;;;;;;;;;;;;;;-145.06;100.00;60892.56;4738609;29;19915;-94
2023/08/13 12:50:49;;;;;;;;;;;;;;;-145.06;100.00;60892.56;4744912;29;20499;-92
2023/08/13 12:53:29;;;;;;;;;;;;;;;-145.06;100.00;60892.56;4746970;29;19919;-92
2023/08/13 12:56:08;;;;;;;;;;;;;;;-145.06;100.00;60892.56;4729385;29;19919;-92
2023/08/13 12:58:48;;;;;;;;;;;;;;;-145.06;100.00;60892.56;4751066;29;19923;-91
2023/08/13 13:01:27;;;;;;;;;;;;;;;-145.06;100.00;60892.56;4747534;29;20642;-92
2023/08/13 13:04:06;;;;;;;;;;;;;;;25.64;100.00;60892.56;4732208;29;19922;-91
2023/08/13 13:06:45;;;;;;;;;;;;;;;-145.06;100.00;60892.56;4738294;29;20350;-92
2023/08/13 13:09:24;;;;;;;;;;;;;;;-145.06;100.00;60892.56;4739701;29;19923;-91
2023/08/13 13:12:03;;;;;;;;;;;;;;;-145.06;100.00;60892.56;4739581;29;19919;-92
2023/08/13 13:14:42;;;;;;;;;;;;;;;187.52;100.00;60892.56;4742836;29;19919;-91
2023/08/13 13:17:25;;;;;;;;;;;;;;;25.72;100.00;60892.56;4725581;29;19958;-91
2023/08/13 13:20:10;;;;;;;;;;;;;;;25.73;100.00;60892.56;4743508;29;19946;-93
2023/08/13 13:22:49;;;;;;;;;;;;;;;25.73;100.00;93348.00;4759843;29;19919;-92
2023/08/13 13:25:31;;;;;;;;;;;;;;;25.72;100.00;104794.97;4733752;29;20327;-92
2023/08/13 13:28:10;;;;;;;;;;;;;;;25.71;100.00;60892.56;4744383;29;20002;-91
2023/08/13 13:30:51;;;;;;;;;;;;;;;25.69;100.00;60892.56;4721642;29;19916;-91
2023/08/13 13:33:30;;;;;;;;;;;;;;;25.69;100.00;60892.56;4721657;29;20186;-90
2023/08/13 13:36:09;;;;;;;;;;;;;;;25.69;100.00;60892.56;4726921;29;19919;-88
2023/08/13 13:38:48;;;;;;;;;;;;;;;25.71;100.00;60892.56;4757185;29;20255;-89
2023/08/13 13:41:27;;;;;;;;;;;;;;;25.72;100.00;60892.56;4732077;29;20367;-91
2023/08/13 13:44:06;;;;;;;;;;;;;;;25.75;100.00;60892.56;4735020;29;20245;-89
2023/08/13 13:46:45;;;;;;;;;;;;;;;25.76;100.00;60892.56;4737793;29;19923;-91
2023/08/13 13:49:24;;;;;;;;;;;;;;;25.78;100.00;60892.56;4731091;29;19916;-91